sensor_id;sensor_type;location;lat;lon;timestamp;P1;durP1;ratioP1;P2;durP2;ratioP2
22415;SDS011;12204;50.600;4.608;2022-10-31T00:00:40;6.63;;;3.00;;
22415;SDS011;12204;50.600;4.608;2022-10-31T00:05:46;6.55;;;3.00;;
22415;SDS011;12204;50.600;4.608;2022-10-31T00:10:51;6.28;;;2.92;;
22415;SDS011;12204;50.600;4.608;2022-10-31T00:15:55;7.43;;;3.33;;
22415;SDS011;12204;50.600;4.608;2022-10-31T00:21:00;6.43;;;2.90;;
22415;SDS011;12204;50.600;4.608;2022-10-31T00:26:05;6.00;;;2.80;;
22415;SDS011;12204;50.600;4.608;2022-10-31T00:31:09;9.95;;;3.00;;
22415;SDS011;12204;50.600;4.608;2022-10-31T00:36:16;6.45;;;2.65;;
22415;SDS011;12204;50.600;4.608;2022-10-31T00:41:21;5.75;;;2.60;;
22415;SDS011;12204;50.600;4.608;2022-10-31T00:46:25;5.78;;;2.55;;
22415;SDS011;12204;50.600;4.608;2022-10-31T00:51:30;6.80;;;3.20;;
22415;SDS011;12204;50.600;4.608;2022-10-31T00:56:34;5.40;;;2.63;;
22415;SDS011;12204;50.600;4.608;2022-10-31T01:01:37;6.53;;;2.72;;
22415;SDS011;12204;50.600;4.608;2022-10-31T01:06:43;5.50;;;2.80;;
22415;SDS011;12204;50.600;4.608;2022-10-31T01:11:46;9.05;;;2.78;;
22415;SDS011;12204;50.600;4.608;2022-10-31T01:16:50;6.35;;;2.63;;
22415;SDS011;12204;50.600;4.608;2022-10-31T01:21:57;9.45;;;2.63;;
22415;SDS011;12204;50.600;4.608;2022-10-31T01:32:07;6.57;;;2.80;;
22415;SDS011;12204;50.600;4.608;2022-10-31T01:37:12;5.85;;;2.50;;
22415;SDS011;12204;50.600;4.608;2022-10-31T01:42:18;6.53;;;2.75;;
22415;SDS011;12204;50.600;4.608;2022-10-31T01:47:27;6.40;;;2.60;;
22415;SDS011;12204;50.600;4.608;2022-10-31T01:52:40;9.00;;;2.60;;
22415;SDS011;12204;50.600;4.608;2022-10-31T01:57:49;6.70;;;2.50;;
22415;SDS011;12204;50.600;4.608;2022-10-31T02:02:58;7.10;;;2.70;;
22415;SDS011;12204;50.600;4.608;2022-10-31T02:08:05;5.10;;;2.53;;
22415;SDS011;12204;50.600;4.608;2022-10-31T02:13:16;6.28;;;2.50;;
22415;SDS011;12204;50.600;4.608;2022-10-31T02:18:23;8.03;;;2.93;;
22415;SDS011;12204;50.600;4.608;2022-10-31T02:29:53;6.65;;;2.42;;
22415;SDS011;12204;50.600;4.608;2022-10-31T02:35:11;8.73;;;2.40;;
22415;SDS011;12204;50.600;4.608;2022-10-31T02:40:46;8.55;;;2.63;;
22415;SDS011;12204;50.600;4.608;2022-10-31T02:46:19;8.20;;;2.58;;
22415;SDS011;12204;50.600;4.608;2022-10-31T02:51:33;5.63;;;2.58;;
22415;SDS011;12204;50.600;4.608;2022-10-31T02:56:37;10.27;;;2.40;;
22415;SDS011;12204;50.600;4.608;2022-10-31T03:07:39;5.20;;;2.40;;
22415;SDS011;12204;50.600;4.608;2022-10-31T03:12:53;5.38;;;2.10;;
22415;SDS011;12204;50.600;4.608;2022-10-31T03:18:07;5.00;;;2.42;;
22415;SDS011;12204;50.600;4.608;2022-10-31T03:23:17;6.10;;;2.40;;
22415;SDS011;12204;50.600;4.608;2022-10-31T03:28:27;4.50;;;2.30;;
22415;SDS011;12204;50.600;4.608;2022-10-31T03:33:40;5.28;;;2.20;;
22415;SDS011;12204;50.600;4.608;2022-10-31T03:38:47;5.82;;;2.30;;
22415;SDS011;12204;50.600;4.608;2022-10-31T03:43:52;5.03;;;2.25;;
22415;SDS011;12204;50.600;4.608;2022-10-31T03:49:02;4.82;;;2.03;;
22415;SDS011;12204;50.600;4.608;2022-10-31T03:54:10;5.22;;;2.40;;
22415;SDS011;12204;50.600;4.608;2022-10-31T03:59:24;5.82;;;2.30;;
22415;SDS011;12204;50.600;4.608;2022-10-31T04:04:33;4.95;;;2.13;;
22415;SDS011;12204;50.600;4.608;2022-10-31T04:09:41;4.53;;;2.00;;
22415;SDS011;12204;50.600;4.608;2022-10-31T04:14:49;6.32;;;2.10;;
22415;SDS011;12204;50.600;4.608;2022-10-31T04:19:58;7.43;;;2.08;;
22415;SDS011;12204;50.600;4.608;2022-10-31T04:25:05;5.95;;;2.00;;
22415;SDS011;12204;50.600;4.608;2022-10-31T04:30:12;11.10;;;2.20;;
22415;SDS011;12204;50.600;4.608;2022-10-31T04:35:16;8.10;;;2.22;;
22415;SDS011;12204;50.600;4.608;2022-10-31T04:40:21;9.02;;;1.92;;
22415;SDS011;12204;50.600;4.608;2022-10-31T04:45:43;6.70;;;2.33;;
22415;SDS011;12204;50.600;4.608;2022-10-31T04:50:48;5.60;;;2.20;;
22415;SDS011;12204;50.600;4.608;2022-10-31T04:55:55;6.05;;;1.98;;
22415;SDS011;12204;50.600;4.608;2022-10-31T05:01:10;5.60;;;2.15;;
22415;SDS011;12204;50.600;4.608;2022-10-31T05:06:14;4.70;;;1.90;;
22415;SDS011;12204;50.600;4.608;2022-10-31T05:11:21;4.40;;;1.90;;
22415;SDS011;12204;50.600;4.608;2022-10-31T05:21:57;5.65;;;1.98;;
22415;SDS011;12204;50.600;4.608;2022-10-31T05:27:02;6.80;;;2.13;;
22415;SDS011;12204;50.600;4.608;2022-10-31T05:32:05;4.70;;;2.10;;
22415;SDS011;12204;50.600;4.608;2022-10-31T05:37:28;4.35;;;1.88;;
22415;SDS011;12204;50.600;4.608;2022-10-31T05:42:34;5.38;;;2.10;;
22415;SDS011;12204;50.600;4.608;2022-10-31T05:47:40;4.50;;;1.80;;
22415;SDS011;12204;50.600;4.608;2022-10-31T05:53:07;7.00;;;2.30;;
22415;SDS011;12204;50.600;4.608;2022-10-31T05:58:13;4.40;;;1.90;;
22415;SDS011;12204;50.600;4.608;2022-10-31T06:03:24;4.03;;;1.95;;
22415;SDS011;12204;50.600;4.608;2022-10-31T06:08:31;3.90;;;1.80;;
22415;SDS011;12204;50.600;4.608;2022-10-31T06:13:40;4.22;;;1.90;;
22415;SDS011;12204;50.600;4.608;2022-10-31T06:18:51;4.13;;;1.80;;
22415;SDS011;12204;50.600;4.608;2022-10-31T06:23:55;4.18;;;1.63;;
22415;SDS011;12204;50.600;4.608;2022-10-31T06:29:26;4.38;;;1.73;;
22415;SDS011;12204;50.600;4.608;2022-10-31T06:34:41;4.00;;;1.50;;
22415;SDS011;12204;50.600;4.608;2022-10-31T06:39:45;4.00;;;1.80;;
22415;SDS011;12204;50.600;4.608;2022-10-31T06:44:51;4.20;;;1.70;;
22415;SDS011;12204;50.600;4.608;2022-10-31T06:50:04;6.40;;;1.70;;
22415;SDS011;12204;50.600;4.608;2022-10-31T06:55:10;5.43;;;1.52;;
22415;SDS011;12204;50.600;4.608;2022-10-31T07:00:15;4.30;;;1.80;;
22415;SDS011;12204;50.600;4.608;2022-10-31T07:05:22;4.90;;;1.88;;
22415;SDS011;12204;50.600;4.608;2022-10-31T07:10:28;5.65;;;1.70;;
22415;SDS011;12204;50.600;4.608;2022-10-31T07:15:43;4.40;;;1.70;;
22415;SDS011;12204;50.600;4.608;2022-10-31T07:20:47;4.65;;;1.70;;
22415;SDS011;12204;50.600;4.608;2022-10-31T07:25:54;4.07;;;1.70;;
22415;SDS011;12204;50.600;4.608;2022-10-31T07:31:06;6.72;;;1.60;;
22415;SDS011;12204;50.600;4.608;2022-10-31T07:36:11;3.67;;;1.90;;
22415;SDS011;12204;50.600;4.608;2022-10-31T07:41:21;4.70;;;1.83;;
22415;SDS011;12204;50.600;4.608;2022-10-31T07:46:27;3.75;;;1.60;;
22415;SDS011;12204;50.600;4.608;2022-10-31T07:51:59;4.30;;;1.52;;
22415;SDS011;12204;50.600;4.608;2022-10-31T07:57:34;8.13;;;1.65;;
22415;SDS011;12204;50.600;4.608;2022-10-31T08:02:41;12.52;;;1.63;;
22415;SDS011;12204;50.600;4.608;2022-10-31T08:08:04;15.10;;;2.20;;
22415;SDS011;12204;50.600;4.608;2022-10-31T08:13:08;13.93;;;2.10;;
22415;SDS011;12204;50.600;4.608;2022-10-31T08:18:20;11.75;;;2.30;;
22415;SDS011;12204;50.600;4.608;2022-10-31T08:23:25;5.35;;;2.30;;
22415;SDS011;12204;50.600;4.608;2022-10-31T08:28:29;13.60;;;2.60;;
22415;SDS011;12204;50.600;4.608;2022-10-31T08:33:34;7.32;;;2.17;;
22415;SDS011;12204;50.600;4.608;2022-10-31T08:38:53;11.73;;;2.63;;
22415;SDS011;12204;50.600;4.608;2022-10-31T08:44:03;13.88;;;2.70;;
22415;SDS011;12204;50.600;4.608;2022-10-31T08:49:08;9.63;;;2.55;;
22415;SDS011;12204;50.600;4.608;2022-10-31T08:54:14;8.98;;;2.70;;
22415;SDS011;12204;50.600;4.608;2022-10-31T08:59:26;9.80;;;2.92;;
22415;SDS011;12204;50.600;4.608;2022-10-31T09:04:54;9.70;;;2.90;;
22415;SDS011;12204;50.600;4.608;2022-10-31T09:09:58;11.50;;;2.90;;
22415;SDS011;12204;50.600;4.608;2022-10-31T09:20:19;9.75;;;3.00;;
22415;SDS011;12204;50.600;4.608;2022-10-31T09:25:24;9.30;;;2.90;;
22415;SDS011;12204;50.600;4.608;2022-10-31T09:30:49;6.97;;;2.90;;
22415;SDS011;12204;50.600;4.608;2022-10-31T09:36:15;9.25;;;2.92;;
22415;SDS011;12204;50.600;4.608;2022-10-31T09:41:19;8.35;;;3.10;;
22415;SDS011;12204;50.600;4.608;2022-10-31T09:46:34;8.77;;;3.20;;
22415;SDS011;12204;50.600;4.608;2022-10-31T09:51:55;8.55;;;3.10;;
22415;SDS011;12204;50.600;4.608;2022-10-31T09:57:05;9.00;;;3.00;;
22415;SDS011;12204;50.600;4.608;2022-10-31T10:02:21;8.38;;;3.40;;
22415;SDS011;12204;50.600;4.608;2022-10-31T10:07:35;6.97;;;3.22;;
22415;SDS011;12204;50.600;4.608;2022-10-31T10:13:24;8.27;;;2.90;;
22415;SDS011;12204;50.600;4.608;2022-10-31T10:18:58;7.75;;;3.10;;
22415;SDS011;12204;50.600;4.608;2022-10-31T10:24:24;6.97;;;2.80;;
22415;SDS011;12204;50.600;4.608;2022-10-31T10:29:47;6.43;;;3.05;;
22415;SDS011;12204;50.600;4.608;2022-10-31T10:34:57;6.30;;;2.78;;
22415;SDS011;12204;50.600;4.608;2022-10-31T10:40:13;9.60;;;3.10;;
22415;SDS011;12204;50.600;4.608;2022-10-31T10:45:21;8.65;;;3.03;;
22415;SDS011;12204;50.600;4.608;2022-10-31T10:50:44;9.13;;;3.25;;
22415;SDS011;12204;50.600;4.608;2022-10-31T10:55:55;10.98;;;3.25;;
22415;SDS011;12204;50.600;4.608;2022-10-31T11:01:10;8.40;;;3.10;;
22415;SDS011;12204;50.600;4.608;2022-10-31T11:06:22;10.95;;;3.20;;
22415;SDS011;12204;50.600;4.608;2022-10-31T11:11:29;6.97;;;3.00;;
22415;SDS011;12204;50.600;4.608;2022-10-31T11:16:34;10.73;;;3.50;;
22415;SDS011;12204;50.600;4.608;2022-10-31T11:21:42;7.57;;;3.35;;
22415;SDS011;12204;50.600;4.608;2022-10-31T11:27:12;8.68;;;3.20;;
22415;SDS011;12204;50.600;4.608;2022-10-31T11:32:20;9.18;;;3.47;;
22415;SDS011;12204;50.600;4.608;2022-10-31T11:37:27;9.63;;;3.70;;
22415;SDS011;12204;50.600;4.608;2022-10-31T11:42:38;8.45;;;3.15;;
22415;SDS011;12204;50.600;4.608;2022-10-31T11:47:44;8.95;;;3.33;;
22415;SDS011;12204;50.600;4.608;2022-10-31T11:52:58;8.30;;;3.42;;
22415;SDS011;12204;50.600;4.608;2022-10-31T11:58:04;8.43;;;3.10;;
22415;SDS011;12204;50.600;4.608;2022-10-31T12:03:27;6.70;;;3.20;;
22415;SDS011;12204;50.600;4.608;2022-10-31T12:08:56;7.78;;;3.25;;
22415;SDS011;12204;50.600;4.608;2022-10-31T12:14:05;7.93;;;3.05;;
22415;SDS011;12204;50.600;4.608;2022-10-31T12:19:25;8.57;;;3.35;;
22415;SDS011;12204;50.600;4.608;2022-10-31T12:30:25;9.52;;;3.28;;
22415;SDS011;12204;50.600;4.608;2022-10-31T12:35:44;7.57;;;3.30;;
22415;SDS011;12204;50.600;4.608;2022-10-31T12:41:02;8.82;;;3.10;;
22415;SDS011;12204;50.600;4.608;2022-10-31T12:46:37;7.78;;;3.17;;
22415;SDS011;12204;50.600;4.608;2022-10-31T12:52:14;9.65;;;3.30;;
22415;SDS011;12204;50.600;4.608;2022-10-31T12:57:38;9.55;;;2.90;;
22415;SDS011;12204;50.600;4.608;2022-10-31T13:02:48;9.45;;;3.33;;
22415;SDS011;12204;50.600;4.608;2022-10-31T13:08:00;7.38;;;3.03;;
22415;SDS011;12204;50.600;4.608;2022-10-31T13:13:12;8.55;;;3.25;;
22415;SDS011;12204;50.600;4.608;2022-10-31T13:18:25;11.93;;;3.40;;
22415;SDS011;12204;50.600;4.608;2022-10-31T13:23:34;7.53;;;3.00;;
22415;SDS011;12204;50.600;4.608;2022-10-31T13:28:57;9.48;;;3.60;;
22415;SDS011;12204;50.600;4.608;2022-10-31T13:34:16;8.18;;;3.60;;
22415;SDS011;12204;50.600;4.608;2022-10-31T13:39:31;9.25;;;3.35;;
22415;SDS011;12204;50.600;4.608;2022-10-31T13:44:52;9.38;;;3.15;;
22415;SDS011;12204;50.600;4.608;2022-10-31T13:50:05;10.80;;;3.20;;
22415;SDS011;12204;50.600;4.608;2022-10-31T13:55:37;10.70;;;3.45;;
22415;SDS011;12204;50.600;4.608;2022-10-31T14:00:44;10.80;;;3.20;;
22415;SDS011;12204;50.600;4.608;2022-10-31T14:05:52;8.20;;;3.00;;
22415;SDS011;12204;50.600;4.608;2022-10-31T14:10:57;9.05;;;3.53;;
22415;SDS011;12204;50.600;4.608;2022-10-31T14:16:02;7.18;;;3.20;;
22415;SDS011;12204;50.600;4.608;2022-10-31T14:26:35;8.48;;;3.10;;
22415;SDS011;12204;50.600;4.608;2022-10-31T14:31:39;7.03;;;3.03;;
22415;SDS011;12204;50.600;4.608;2022-10-31T14:36:49;8.65;;;3.20;;
22415;SDS011;12204;50.600;4.608;2022-10-31T14:42:41;9.05;;;3.28;;
22415;SDS011;12204;50.600;4.608;2022-10-31T14:48:13;8.63;;;2.92;;
22415;SDS011;12204;50.600;4.608;2022-10-31T14:53:40;8.05;;;3.30;;
22415;SDS011;12204;50.600;4.608;2022-10-31T14:58:51;8.30;;;3.28;;
22415;SDS011;12204;50.600;4.608;2022-10-31T15:04:00;7.70;;;2.90;;
22415;SDS011;12204;50.600;4.608;2022-10-31T15:09:26;9.85;;;2.60;;
22415;SDS011;12204;50.600;4.608;2022-10-31T15:14:32;8.48;;;3.15;;
22415;SDS011;12204;50.600;4.608;2022-10-31T15:19:36;6.93;;;2.90;;
22415;SDS011;12204;50.600;4.608;2022-10-31T15:24:41;6.95;;;2.97;;
22415;SDS011;12204;50.600;4.608;2022-10-31T15:29:49;7.18;;;2.80;;
22415;SDS011;12204;50.600;4.608;2022-10-31T15:34:55;7.55;;;2.90;;
22415;SDS011;12204;50.600;4.608;2022-10-31T15:40:07;7.85;;;2.75;;
22415;SDS011;12204;50.600;4.608;2022-10-31T15:45:21;6.57;;;3.00;;
22415;SDS011;12204;50.600;4.608;2022-10-31T15:50:28;5.82;;;2.72;;
22415;SDS011;12204;50.600;4.608;2022-10-31T15:55:37;7.35;;;2.83;;
22415;SDS011;12204;50.600;4.608;2022-10-31T16:00:56;10.60;;;3.13;;
22415;SDS011;12204;50.600;4.608;2022-10-31T16:06:03;8.20;;;3.03;;
22415;SDS011;12204;50.600;4.608;2022-10-31T16:11:17;11.75;;;3.22;;
22415;SDS011;12204;50.600;4.608;2022-10-31T16:16:27;9.00;;;2.95;;
22415;SDS011;12204;50.600;4.608;2022-10-31T16:21:37;17.75;;;3.50;;
22415;SDS011;12204;50.600;4.608;2022-10-31T16:26:47;14.18;;;3.92;;
22415;SDS011;12204;50.600;4.608;2022-10-31T16:31:52;11.55;;;3.60;;
22415;SDS011;12204;50.600;4.608;2022-10-31T16:36:56;16.30;;;4.35;;
22415;SDS011;12204;50.600;4.608;2022-10-31T16:42:01;15.57;;;3.97;;
22415;SDS011;12204;50.600;4.608;2022-10-31T16:47:09;12.68;;;3.72;;
22415;SDS011;12204;50.600;4.608;2022-10-31T16:52:16;14.30;;;3.88;;
22415;SDS011;12204;50.600;4.608;2022-10-31T16:57:22;12.93;;;4.10;;
22415;SDS011;12204;50.600;4.608;2022-10-31T17:02:30;11.27;;;3.80;;
22415;SDS011;12204;50.600;4.608;2022-10-31T17:07:33;16.10;;;3.75;;
22415;SDS011;12204;50.600;4.608;2022-10-31T17:12:39;12.48;;;3.30;;
22415;SDS011;12204;50.600;4.608;2022-10-31T17:17:46;18.35;;;3.80;;
22415;SDS011;12204;50.600;4.608;2022-10-31T17:22:50;17.23;;;3.67;;
22415;SDS011;12204;50.600;4.608;2022-10-31T17:27:55;10.02;;;3.08;;
22415;SDS011;12204;50.600;4.608;2022-10-31T17:33:00;11.38;;;3.78;;
22415;SDS011;12204;50.600;4.608;2022-10-31T17:38:03;13.20;;;3.55;;
22415;SDS011;12204;50.600;4.608;2022-10-31T17:43:08;11.70;;;3.15;;
22415;SDS011;12204;50.600;4.608;2022-10-31T17:48:13;11.43;;;3.30;;
22415;SDS011;12204;50.600;4.608;2022-10-31T17:53:16;10.52;;;3.13;;
22415;SDS011;12204;50.600;4.608;2022-10-31T17:58:21;11.18;;;3.42;;
22415;SDS011;12204;50.600;4.608;2022-10-31T18:03:25;9.07;;;2.90;;
22415;SDS011;12204;50.600;4.608;2022-10-31T18:08:31;9.07;;;3.00;;
22415;SDS011;12204;50.600;4.608;2022-10-31T18:13:41;7.40;;;2.90;;
22415;SDS011;12204;50.600;4.608;2022-10-31T18:18:48;7.70;;;2.72;;
22415;SDS011;12204;50.600;4.608;2022-10-31T18:23:54;9.88;;;3.13;;
22415;SDS011;12204;50.600;4.608;2022-10-31T18:29:00;9.27;;;2.63;;
22415;SDS011;12204;50.600;4.608;2022-10-31T18:34:04;8.63;;;2.78;;
22415;SDS011;12204;50.600;4.608;2022-10-31T18:39:08;7.85;;;2.83;;
22415;SDS011;12204;50.600;4.608;2022-10-31T18:44:13;8.45;;;2.60;;
22415;SDS011;12204;50.600;4.608;2022-10-31T18:49:17;6.82;;;2.70;;
22415;SDS011;12204;50.600;4.608;2022-10-31T18:54:23;7.03;;;2.47;;
22415;SDS011;12204;50.600;4.608;2022-10-31T18:59:27;7.40;;;2.58;;
22415;SDS011;12204;50.600;4.608;2022-10-31T19:04:31;5.97;;;2.58;;
22415;SDS011;12204;50.600;4.608;2022-10-31T19:09:34;8.55;;;2.50;;
22415;SDS011;12204;50.600;4.608;2022-10-31T19:14:40;7.97;;;2.70;;
22415;SDS011;12204;50.600;4.608;2022-10-31T19:19:43;7.10;;;2.58;;
22415;SDS011;12204;50.600;4.608;2022-10-31T19:24:47;7.38;;;3.00;;
22415;SDS011;12204;50.600;4.608;2022-10-31T19:29:51;6.78;;;2.35;;
22415;SDS011;12204;50.600;4.608;2022-10-31T19:34:55;6.53;;;2.80;;
22415;SDS011;12204;50.600;4.608;2022-10-31T19:39:58;8.55;;;2.67;;
22415;SDS011;12204;50.600;4.608;2022-10-31T19:45:04;8.90;;;2.60;;
22415;SDS011;12204;50.600;4.608;2022-10-31T19:50:08;9.43;;;2.35;;
22415;SDS011;12204;50.600;4.608;2022-10-31T19:55:12;7.45;;;2.60;;
22415;SDS011;12204;50.600;4.608;2022-10-31T20:00:17;7.28;;;2.63;;
22415;SDS011;12204;50.600;4.608;2022-10-31T20:05:21;7.05;;;2.47;;
22415;SDS011;12204;50.600;4.608;2022-10-31T20:10:25;5.18;;;2.50;;
22415;SDS011;12204;50.600;4.608;2022-10-31T20:15:30;7.85;;;2.53;;
22415;SDS011;12204;50.600;4.608;2022-10-31T20:20:33;8.45;;;2.65;;
22415;SDS011;12204;50.600;4.608;2022-10-31T20:25:36;8.32;;;2.60;;
22415;SDS011;12204;50.600;4.608;2022-10-31T20:30:50;8.68;;;2.60;;
22415;SDS011;12204;50.600;4.608;2022-10-31T20:35:54;6.43;;;2.35;;
22415;SDS011;12204;50.600;4.608;2022-10-31T20:40:58;6.28;;;2.50;;
22415;SDS011;12204;50.600;4.608;2022-10-31T20:46:05;9.80;;;2.80;;
22415;SDS011;12204;50.600;4.608;2022-10-31T20:51:13;6.72;;;2.70;;
22415;SDS011;12204;50.600;4.608;2022-10-31T20:56:20;6.97;;;2.70;;
22415;SDS011;12204;50.600;4.608;2022-10-31T21:01:28;8.70;;;2.78;;
22415;SDS011;12204;50.600;4.608;2022-10-31T21:06:36;8.05;;;2.88;;
22415;SDS011;12204;50.600;4.608;2022-10-31T21:11:41;8.07;;;2.60;;
22415;SDS011;12204;50.600;4.608;2022-10-31T21:16:46;8.93;;;2.88;;
22415;SDS011;12204;50.600;4.608;2022-10-31T21:21:50;6.57;;;3.00;;
22415;SDS011;12204;50.600;4.608;2022-10-31T21:26:53;9.00;;;2.42;;
22415;SDS011;12204;50.600;4.608;2022-10-31T21:31:58;8.30;;;2.55;;
22415;SDS011;12204;50.600;4.608;2022-10-31T21:37:02;6.93;;;2.40;;
22415;SDS011;12204;50.600;4.608;2022-10-31T21:42:06;6.75;;;2.33;;
22415;SDS011;12204;50.600;4.608;2022-10-31T21:47:10;7.22;;;2.70;;
22415;SDS011;12204;50.600;4.608;2022-10-31T21:52:14;6.88;;;2.47;;
22415;SDS011;12204;50.600;4.608;2022-10-31T21:57:18;8.68;;;2.50;;
22415;SDS011;12204;50.600;4.608;2022-10-31T22:02:24;7.78;;;2.67;;
22415;SDS011;12204;50.600;4.608;2022-10-31T22:07:27;8.70;;;2.58;;
22415;SDS011;12204;50.600;4.608;2022-10-31T22:12:32;7.97;;;2.45;;
22415;SDS011;12204;50.600;4.608;2022-10-31T22:17:37;7.20;;;2.50;;
22415;SDS011;12204;50.600;4.608;2022-10-31T22:22:40;7.13;;;2.40;;
22415;SDS011;12204;50.600;4.608;2022-10-31T22:27:44;6.68;;;2.40;;
22415;SDS011;12204;50.600;4.608;2022-10-31T22:32:49;6.82;;;2.40;;
22415;SDS011;12204;50.600;4.608;2022-10-31T22:37:53;7.72;;;2.50;;
22415;SDS011;12204;50.600;4.608;2022-10-31T22:42:56;6.97;;;2.50;;
22415;SDS011;12204;50.600;4.608;2022-10-31T22:48:07;7.45;;;2.67;;
22415;SDS011;12204;50.600;4.608;2022-10-31T22:53:11;6.97;;;2.33;;
22415;SDS011;12204;50.600;4.608;2022-10-31T22:58:17;6.60;;;2.40;;
22415;SDS011;12204;50.600;4.608;2022-10-31T23:03:22;9.43;;;2.50;;
22415;SDS011;12204;50.600;4.608;2022-10-31T23:08:27;7.32;;;2.45;;
22415;SDS011;12204;50.600;4.608;2022-10-31T23:13:32;6.28;;;2.63;;
22415;SDS011;12204;50.600;4.608;2022-10-31T23:18:55;6.00;;;2.65;;
22415;SDS011;12204;50.600;4.608;2022-10-31T23:23:59;6.65;;;2.53;;
22415;SDS011;12204;50.600;4.608;2022-10-31T23:29:03;6.50;;;2.78;;
22415;SDS011;12204;50.600;4.608;2022-10-31T23:34:08;5.97;;;2.40;;
22415;SDS011;12204;50.600;4.608;2022-10-31T23:39:11;7.03;;;2.58;;
22415;SDS011;12204;50.600;4.608;2022-10-31T23:44:15;5.88;;;2.60;;
22415;SDS011;12204;50.600;4.608;2022-10-31T23:49:20;6.93;;;2.80;;
22415;SDS011;12204;50.600;4.608;2022-10-31T23:54:24;6.63;;;2.50;;
22415;SDS011;12204;50.600;4.608;2022-10-31T23:59:29;6.50;;;2.58;;
